Terminal Aerodrome Forecast
Issued by NWS Louisville, KY

Home | Current Version | Previous Version | Text Only | Print | Product List | Glossary On
Versions: 1 2 3 4 5 6 7 8 9 10 11 12 13 14 15 16 17 18 19 20 21 22 23 24 25 26 27 28 29 30 31
000
FTUS43 KLMK 050900 AAB
TAFSDF
TAF AMD
KSDF 050928Z 0509/0612 36013KT 3/4SM -SN BR VV012
     FM051100 36010KT 2SM -SN BR OVC015
     FM051200 35007KT P6SM BKN022
     FM052300 33009KT P6SM SCT025=

USA.gov is the U.S. government's official web portal to all federal, state and local government web resources and services.